Time;durP1;ratioP1;P1;durP2;ratioP2;P2;SDS_P1;SDS_P2;PMS_P1;PMS_P2;Temp;Humidity;BMP_temperature;BMP_pressure;BME280_temperature;BME280_humidity;BME280_pressure;Samples;Min_cycle;Max_cycle;Signal;HPM_P1;HPM_P2
2022/07/16 00:03:25;;;;;;;4.65;1.15;;;17.00;99.90;;;;;;5097649;28;20051;-86
2022/07/16 00:05:50;;;;;;;4.63;1.10;;;17.00;99.90;;;;;;5097456;28;20050;-86
2022/07/16 00:08:16;;;;;;;4.05;1.55;;;17.00;99.90;;;;;;5114985;28;20469;-83
2022/07/16 00:10:42;;;;;;;1.70;1.10;;;17.00;99.90;;;;;;5114741;28;20093;-88
2022/07/16 00:13:08;;;;;;;2.10;1.30;;;17.00;99.90;;;;;;5096538;28;20384;-86
2022/07/16 00:15:33;;;;;;;3.88;1.55;;;17.00;99.90;;;;;;5115629;28;20040;-84
2022/07/16 00:20:43;;;;;;;2.60;1.40;;;17.00;99.90;;;;;;5096714;28;20050;-86
2022/07/16 00:23:09;;;;;;;2.75;1.27;;;17.00;99.90;;;;;;5114977;28;20389;-87
2022/07/16 00:25:35;;;;;;;2.33;1.42;;;16.90;99.90;;;;;;5096592;28;20373;-86
2022/07/16 00:28:01;;;;;;;5.47;1.58;;;16.80;99.90;;;;;;5097363;28;20124;-86
2022/07/16 00:30:27;;;;;;;5.40;1.20;;;16.80;99.90;;;;;;5114882;28;20097;-86
2022/07/16 00:32:52;;;;;;;3.90;1.60;;;16.80;99.90;;;;;;5114788;28;20039;-86
2022/07/16 00:35:18;;;;;;;3.45;1.50;;;16.70;99.90;;;;;;5096593;28;20181;-86
2022/07/16 00:37:44;;;;;;;3.97;1.35;;;16.70;99.90;;;;;;5114749;28;20421;-87
2022/07/16 00:40:10;;;;;;;5.00;1.30;;;16.60;99.90;;;;;;5096187;28;20106;-88
2022/07/16 00:42:35;;;;;;;3.92;1.60;;;16.60;99.90;;;;;;5096324;28;20038;-88
2022/07/16 00:45:01;;;;;;;4.38;1.55;;;16.60;99.90;;;;;;5114517;28;20047;-86
2022/07/16 00:47:26;;;;;;;4.60;1.65;;;16.60;99.90;;;;;;5097009;28;20116;-86
2022/07/16 00:49:52;;;;;;;3.72;1.70;;;16.50;99.90;;;;;;5096688;28;20127;-88
2022/07/16 00:52:18;;;;;;;4.97;2.00;;;16.50;99.90;;;;;;5114694;28;20468;-86
2022/07/16 00:54:43;;;;;;;3.22;1.60;;;16.50;99.90;;;;;;5114068;28;20480;-86
2022/07/16 00:57:09;;;;;;;5.13;1.88;;;16.50;99.90;;;;;;5113950;28;20047;-87
2022/07/16 00:59:34;;;;;;;5.22;1.88;;;16.40;99.90;;;;;;5096272;27;20081;-87
2022/07/16 01:02:00;;;;;;;2.78;1.55;;;16.50;99.90;;;;;;5079021;28;20052;-87
2022/07/16 01:04:26;;;;;;;4.03;2.22;;;16.50;99.90;;;;;;5095970;28;20044;-86
2022/07/16 01:06:53;;;;;;;4.03;1.92;;;16.50;99.90;;;;;;5114191;28;20082;-87
2022/07/16 01:09:20;;;;;;;3.97;1.95;;;16.50;99.90;;;;;;5114231;28;20040;-86
2022/07/16 01:11:47;;;;;;;5.50;2.17;;;16.50;99.90;;;;;;5095790;28;20040;-87
2022/07/16 01:14:15;;;;;;;4.63;2.00;;;16.50;99.90;;;;;;5096193;28;20052;-86
2022/07/16 01:16:41;;;;;;;3.80;2.08;;;16.60;99.90;;;;;;5113841;28;20500;-86
2022/07/16 01:19:08;;;;;;;6.78;2.38;;;16.40;99.90;;;;;;5113788;28;20118;-85
2022/07/16 01:21:34;;;;;;;7.28;1.98;;;16.40;99.90;;;;;;5114115;28;20036;-87
2022/07/16 01:24:00;;;;;;;4.72;2.10;;;16.40;99.90;;;;;;5113929;28;20126;-87
2022/07/16 01:26:25;;;;;;;5.55;2.03;;;16.30;99.90;;;;;;5095790;28;20134;-87
2022/07/16 01:28:51;;;;;;;2.67;1.70;;;16.30;99.90;;;;;;5096065;28;20387;-87
2022/07/16 01:31:17;;;;;;;5.25;2.08;;;16.30;99.90;;;;;;5095210;28;20048;-88
2022/07/16 01:33:43;;;;;;;3.25;2.15;;;16.20;99.90;;;;;;5096477;28;20382;-87
2022/07/16 01:36:11;;;;;;;4.65;2.90;;;16.20;99.90;;;;;;5096116;28;20119;-86
2022/07/16 01:38:42;;;;;;;6.40;2.83;;;16.20;99.90;;;;;;5113628;28;20465;-86
2022/07/16 01:41:09;;;;;;;5.28;2.30;;;16.00;99.90;;;;;;5095517;28;20035;-86
2022/07/16 01:43:35;;;;;;;4.30;2.78;;;15.70;99.90;;;;;;5096217;28;20039;-86
2022/07/16 01:46:01;;;;;;;4.18;3.10;;;15.50;99.90;;;;;;5114262;28;20383;-87
2022/07/16 01:48:27;;;;;;;5.38;2.90;;;15.30;99.90;;;;;;5095944;28;20507;-85
2022/07/16 01:50:53;;;;;;;5.63;3.30;;;15.20;99.90;;;;;;5113997;28;20123;-87
2022/07/16 01:53:19;;;;;;;5.88;3.00;;;15.10;99.90;;;;;;5113918;28;20044;-86
2022/07/16 01:55:46;;;;;;;3.97;2.45;;;15.10;99.90;;;;;;5113491;28;20085;-85
2022/07/16 01:58:13;;;;;;;4.85;2.80;;;15.10;99.90;;;;;;5113422;28;20082;-86
2022/07/16 02:00:41;;;;;;;5.70;3.13;;;15.10;99.90;;;;;;5113239;27;20127;-85
2022/07/16 02:03:07;;;;;;;4.50;2.58;;;15.00;99.90;;;;;;5113557;28;20137;-82
2022/07/16 02:05:33;;;;;;;7.00;2.92;;;15.00;99.90;;;;;;5095002;28;20062;-86
2022/07/16 02:07:59;;;;;;;7.53;3.28;;;15.10;99.90;;;;;;5113645;28;20361;-85
2022/07/16 02:10:25;;;;;;;4.97;2.88;;;15.10;99.90;;;;;;5095462;28;20077;-86
2022/07/16 02:12:51;;;;;;;7.90;3.28;;;15.10;99.90;;;;;;5095532;28;20540;-86
2022/07/16 02:15:17;;;;;;;6.07;3.50;;;15.10;99.90;;;;;;5099128;28;20388;-86
2022/07/16 02:17:42;;;;;;;6.20;3.60;;;15.10;99.90;;;;;;5099163;28;20036;-85
2022/07/16 02:20:11;;;;;;;5.85;3.25;;;15.10;99.90;;;;;;5117516;28;20047;-85
2022/07/16 02:22:37;;;;;;;3.28;2.58;;;15.10;99.90;;;;;;5117254;28;20047;-85
2022/07/16 02:25:03;;;;;;;9.50;3.67;;;15.10;99.90;;;;;;5098953;28;20043;-85
2022/07/16 02:27:29;;;;;;;9.07;3.40;;;15.10;99.90;;;;;;5098723;28;20468;-87
2022/07/16 02:29:54;;;;;;;9.55;3.10;;;15.10;99.90;;;;;;5099672;28;20039;-86
2022/07/16 02:32:20;;;;;;;6.65;2.58;;;15.20;99.90;;;;;;5117171;28;20040;-85
2022/07/16 02:34:46;;;;;;;4.65;2.20;;;15.20;99.90;;;;;;5098901;28;20473;-86
2022/07/16 02:37:11;;;;;;;3.13;2.00;;;15.20;99.90;;;;;;5116950;28;20092;-86
2022/07/16 02:39:37;;;;;;;2.65;1.83;;;15.20;99.90;;;;;;5098895;28;20090;-83
2022/07/16 02:42:02;;;;;;;4.65;1.48;;;15.30;99.90;;;;;;5116522;28;20473;-83
2022/07/16 02:44:28;;;;;;;7.70;1.92;;;15.30;99.90;;;;;;5117132;28;20043;-82
2022/07/16 02:46:54;;;;;;;6.30;2.00;;;15.30;99.90;;;;;;5098684;28;20477;-85
2022/07/16 02:49:19;;;;;;;6.53;1.80;;;15.30;99.90;;;;;;5098705;28;20039;-86
2022/07/16 02:51:45;;;;;;;6.15;1.55;;;15.40;99.90;;;;;;5099028;28;20054;-86
2022/07/16 02:54:11;;;;;;;4.40;1.60;;;15.40;99.90;;;;;;5098466;28;20507;-85
2022/07/16 02:56:37;;;;;;;4.78;1.63;;;15.40;99.90;;;;;;5097952;28;20108;-85
2022/07/16 02:59:03;;;;;;;5.28;1.67;;;15.30;99.90;;;;;;5116194;28;20083;-86
2022/07/16 03:01:28;;;;;;;4.00;1.55;;;15.30;99.90;;;;;;5116647;28;20105;-84
2022/07/16 03:03:54;;;;;;;6.63;1.52;;;15.20;99.90;;;;;;5116687;28;20093;-87
2022/07/16 03:06:20;;;;;;;5.45;1.45;;;15.10;99.90;;;;;;5116466;28;20369;-84
2022/07/16 03:08:46;;;;;;;4.68;1.48;;;15.10;99.90;;;;;;5116437;28;20036;-86
2022/07/16 03:11:12;;;;;;;5.63;1.40;;;15.10;99.90;;;;;;5116066;28;20487;-84
2022/07/16 03:13:38;;;;;;;7.55;1.63;;;15.10;99.90;;;;;;5081106;28;20118;-85
2022/07/16 03:16:04;;;;;;;5.53;1.60;;;15.10;99.90;;;;;;5098444;28;20180;-86
2022/07/16 03:18:29;;;;;;;2.60;1.40;;;15.10;99.90;;;;;;5098437;28;20169;-85
2022/07/16 03:20:56;;;;;;;7.75;1.80;;;15.10;99.90;;;;;;5115912;28;20097;-84
2022/07/16 03:23:21;;;;;;;5.03;1.60;;;15.20;99.90;;;;;;5116072;28;20035;-85
2022/07/16 03:25:47;;;;;;;8.18;1.42;;;15.20;99.90;;;;;;5115242;28;20040;-86
2022/07/16 03:28:12;;;;;;;6.78;1.50;;;15.20;99.90;;;;;;5115395;28;20512;-84
2022/07/16 03:30:38;;;;;;;4.45;1.38;;;15.20;99.90;;;;;;5098626;28;20035;-85
2022/07/16 03:33:04;;;;;;;4.45;1.60;;;15.20;99.90;;;;;;5116064;28;20393;-85
2022/07/16 03:35:30;;;;;;;7.20;1.83;;;15.30;99.90;;;;;;5107604;28;20039;-84
2022/07/16 03:40:53;;;;;;;4.25;1.73;;;15.20;99.90;;;;;;5016309;28;20045;-85
2022/07/16 03:43:19;;;;;;;5.53;1.52;;;15.20;99.90;;;;;;5032906;28;20045;-84
2022/07/16 03:45:44;;;;;;;6.80;1.67;;;15.20;99.90;;;;;;5032764;28;20506;-86
2022/07/16 03:48:10;;;;;;;5.72;1.77;;;15.20;99.90;;;;;;5016330;28;20491;-85
2022/07/16 03:50:36;;;;;;;10.13;1.90;;;15.10;99.90;;;;;;5032699;28;20056;-85
2022/07/16 03:53:01;;;;;;;7.72;1.52;;;15.10;99.90;;;;;;5031983;28;20049;-85
2022/07/16 03:55:27;;;;;;;4.97;1.52;;;15.10;99.90;;;;;;5016334;28;20037;-86
2022/07/16 03:57:52;;;;;;;5.03;1.48;;;15.10;99.90;;;;;;5016335;28;20414;-86
2022/07/16 04:00:18;;;;;;;8.23;1.80;;;15.00;99.90;;;;;;5015472;28;20395;-85
2022/07/16 04:02:44;;;;;;;4.78;1.48;;;15.10;99.90;;;;;;5012906;28;20054;-86
2022/07/16 04:05:10;;;;;;;7.18;1.50;;;15.00;99.90;;;;;;5013233;28;20424;-85
2022/07/16 04:07:35;;;;;;;8.38;1.83;;;15.00;99.90;;;;;;5016097;28;20041;-87
2022/07/16 04:10:01;;;;;;;5.82;1.60;;;14.90;99.90;;;;;;5032642;28;20096;-86
2022/07/16 04:12:27;;;;;;;4.50;1.50;;;14.90;99.90;;;;;;4999751;28;20087;-86
2022/07/16 04:14:53;;;;;;;7.82;1.70;;;14.90;99.90;;;;;;5016091;28;20113;-85
2022/07/16 04:17:19;;;;;;;5.10;1.63;;;14.80;99.90;;;;;;5103099;28;20496;-85
2022/07/16 04:19:44;;;;;;;5.75;1.88;;;14.80;99.90;;;;;;5079898;28;20081;-85
2022/07/16 04:22:10;;;;;;;6.88;1.60;;;14.70;99.90;;;;;;5115019;28;20039;-85
2022/07/16 04:24:36;;;;;;;3.75;1.48;;;14.70;99.90;;;;;;5114784;28;20381;-86
2022/07/16 04:27:01;;;;;;;5.18;1.70;;;14.70;99.90;;;;;;5096331;28;20031;-86
2022/07/16 04:29:27;;;;;;;5.07;1.50;;;14.60;99.90;;;;;;5096616;28;20122;-86
2022/07/16 04:31:53;;;;;;;8.93;1.77;;;14.50;99.90;;;;;;5096851;28;20132;-85
2022/07/16 04:34:18;;;;;;;8.10;1.60;;;14.70;99.90;;;;;;5096937;28;20035;-85
2022/07/16 04:36:44;;;;;;;2.67;1.65;;;14.70;99.90;;;;;;5114390;28;20092;-85
2022/07/16 04:42:51;;;;;;;4.97;1.92;;;14.80;99.90;;;;;;5114103;28;20105;-86
2022/07/16 04:45:17;;;;;;;7.60;1.55;;;14.90;99.90;;;;;;5096859;28;20471;-83
2022/07/16 04:47:43;;;;;;;4.85;1.65;;;14.90;99.90;;;;;;5114454;28;20039;-86
2022/07/16 04:50:09;;;;;;;6.20;1.83;;;14.80;99.90;;;;;;5114559;28;20043;-85
2022/07/16 04:52:35;;;;;;;3.08;1.50;;;14.80;99.90;;;;;;5096472;28;20126;-86
2022/07/16 04:55:01;;;;;;;6.45;1.90;;;14.80;99.90;;;;;;5114040;28;20082;-85
2022/07/16 04:57:27;;;;;;;3.10;1.45;;;14.80;99.90;;;;;;5079306;28;20039;-84
2022/07/16 04:59:53;;;;;;;8.35;1.50;;;14.80;99.90;;;;;;5114097;27;20108;-85
2022/07/16 05:05:05;;;;;;;8.20;1.60;;;14.80;99.90;;;;;;5096649;28;20100;-87
2022/07/16 05:07:31;;;;;;;9.85;1.80;;;14.80;99.90;;;;;;5095807;28;20484;-87
2022/07/16 05:09:56;;;;;;;4.40;1.80;;;14.80;99.90;;;;;;5096028;28;20039;-85
2022/07/16 05:12:22;;;;;;;8.80;1.67;;;14.90;99.90;;;;;;5113986;28;20140;-84
2022/07/16 05:14:48;;;;;;;4.00;1.38;;;14.90;99.90;;;;;;5096368;28;20453;-86
2022/07/16 05:17:14;;;;;;;5.13;1.45;;;15.00;99.90;;;;;;5096256;28;20075;-84
2022/07/16 05:19:39;;;;;;;7.45;1.60;;;15.00;99.90;;;;;;5096453;28;20334;-86
2022/07/16 05:22:05;;;;;;;4.30;1.40;;;15.20;99.90;;;;;;5113900;28;20039;-85
2022/07/16 05:24:32;;;;;;;4.75;1.40;;;15.20;99.90;;;;;;5079263;28;20036;-86
2022/07/16 05:26:58;;;;;;;5.63;1.52;;;15.20;99.90;;;;;;5113689;28;20083;-85
2022/07/16 05:29:23;;;;;;;6.57;1.60;;;15.20;99.90;;;;;;5096265;28;20075;-86
2022/07/16 05:31:49;;;;;;;7.63;1.55;;;15.30;99.90;;;;;;5113994;28;20544;-84
2022/07/16 05:34:15;;;;;;;4.80;1.50;;;15.30;99.90;;;;;;5114130;28;20046;-87
2022/07/16 05:36:40;;;;;;;5.60;1.40;;;15.30;99.90;;;;;;5113828;28;20047;-84
2022/07/16 05:39:22;;;;;;;6.38;1.45;;;15.30;99.90;;;;;;5095951;28;20043;-83
2022/07/16 05:41:47;;;;;;;10.50;1.30;;;15.30;99.90;;;;;;5113696;28;20047;-86
2022/07/16 05:44:13;;;;;;;5.53;1.40;;;15.30;99.90;;;;;;5113867;28;20384;-82
2022/07/16 05:46:39;;;;;;;7.78;1.48;;;15.50;99.90;;;;;;5114085;28;20039;-84
2022/07/16 05:49:04;;;;;;;5.72;1.48;;;15.60;99.90;;;;;;5115513;28;20035;-87
2022/07/16 05:51:30;;;;;;;5.03;1.42;;;15.70;99.90;;;;;;5099860;28;20496;-83
2022/07/16 05:53:55;;;;;;;6.47;1.42;;;15.90;99.90;;;;;;5099282;28;20431;-83
2022/07/16 05:56:21;;;;;;;7.80;1.30;;;16.00;99.90;;;;;;5099495;28;20044;-83
2022/07/16 05:58:47;;;;;;;4.88;1.08;;;16.00;99.90;;;;;;5099415;28;20056;-85
2022/07/16 06:01:12;;;;;;;5.57;1.08;;;16.10;99.90;;;;;;5099327;28;20052;-83
2022/07/16 06:03:38;;;;;;;6.00;1.20;;;16.00;99.90;;;;;;5117641;28;20391;-87
2022/07/16 06:06:04;;;;;;;6.32;1.20;;;16.00;99.90;;;;;;5082411;28;20457;-84
2022/07/16 06:08:29;;;;;;;8.52;1.42;;;16.20;99.90;;;;;;5099635;28;20039;-86
2022/07/16 06:10:55;;;;;;;7.45;1.52;;;16.30;99.90;;;;;;5117403;28;20035;-89
2022/07/16 06:13:20;;;;;;;10.13;1.40;;;16.40;99.90;;;;;;5099429;28;20051;-83
2022/07/16 06:15:48;;;;;;;9.45;1.60;;;16.30;99.90;;;;;;5101474;28;20043;-85
2022/07/16 06:18:14;;;;;;;8.85;1.50;;;16.40;99.90;;;;;;5083167;28;20036;-83
2022/07/16 06:20:40;;;;;;;6.43;0.90;;;16.40;99.90;;;;;;5081747;28;20046;-86
2022/07/16 06:23:05;;;;;;;6.65;1.40;;;16.30;99.90;;;;;;5117237;28;20376;-84
2022/07/16 06:25:32;;;;;;;6.00;1.20;;;16.30;99.90;;;;;;5098987;28;20108;-86
2022/07/16 06:27:58;;;;;;;7.00;1.40;;;16.30;99.90;;;;;;5098940;28;20051;-83
2022/07/16 06:30:24;;;;;;;5.47;1.40;;;16.30;99.90;;;;;;5117354;28;20380;-85
2022/07/16 06:32:50;;;;;;;4.50;1.00;;;16.40;99.90;;;;;;5116925;28;20499;-84
2022/07/16 06:35:15;;;;;;;8.80;1.38;;;16.50;99.90;;;;;;5117421;28;20039;-85
2022/07/16 06:37:41;;;;;;;10.13;1.65;;;16.70;99.90;;;;;;5098997;28;20601;-85
2022/07/16 06:40:26;;;;;;;7.38;1.05;;;16.80;99.90;;;;;;5098600;28;20032;-83
2022/07/16 06:42:51;;;;;;;5.53;1.55;;;16.90;99.90;;;;;;5116799;28;20468;-82
2022/07/16 06:45:17;;;;;;;7.28;1.17;;;17.10;99.90;;;;;;5098836;28;20096;-83
2022/07/16 06:47:43;;;;;;;10.43;1.45;;;17.40;99.90;;;;;;5098971;28;20126;-83
2022/07/16 06:50:09;;;;;;;7.68;1.10;;;17.90;99.90;;;;;;5116659;28;20079;-83
2022/07/16 06:52:34;;;;;;;5.72;1.20;;;18.60;99.90;;;;;;5116662;28;20412;-84
2022/07/16 06:55:00;;;;;;;5.70;0.90;;;18.90;99.90;;;;;;5098452;28;20055;-85
2022/07/16 06:57:25;;;;;;;4.00;1.00;;;19.20;99.90;;;;;;5097802;28;20047;-87
2022/07/16 06:59:51;;;;;;;5.18;1.10;;;19.00;99.90;;;;;;5097970;27;20338;-84
2022/07/16 07:02:17;;;;;;;8.20;1.05;;;18.80;99.90;;;;;;5098264;28;20373;-83
2022/07/16 07:04:42;;;;;;;7.55;1.17;;;18.60;99.90;;;;;;5097882;28;20104;-84
2022/07/16 07:07:08;;;;;;;4.80;1.10;;;18.50;99.90;;;;;;5116448;28;20043;-85
2022/07/16 07:09:34;;;;;;;7.63;1.10;;;18.40;99.90;;;;;;5098631;28;20121;-85
2022/07/16 07:11:59;;;;;;;5.50;0.80;;;18.10;99.90;;;;;;5097951;28;20048;-83
2022/07/16 07:14:25;;;;;;;8.55;1.58;;;17.90;99.90;;;;;;5116502;28;20036;-85
2022/07/16 07:16:51;;;;;;;5.10;1.10;;;17.70;99.90;;;;;;5081065;28;20051;-83
2022/07/16 07:19:16;;;;;;;3.15;1.10;;;17.50;99.90;;;;;;5115896;28;20079;-83
2022/07/16 07:21:42;;;;;;;8.13;1.17;;;17.40;99.90;;;;;;5097969;28;20044;-86
2022/07/16 07:24:07;;;;;;;6.15;0.98;;;17.30;99.90;;;;;;5098214;28;20039;-85
2022/07/16 07:26:33;;;;;;;8.13;2.13;;;17.10;99.90;;;;;;5080596;28;20127;-85
2022/07/16 07:28:59;;;;;;;7.65;2.35;;;17.10;99.90;;;;;;5098146;28;20043;-83
2022/07/16 07:31:24;;;;;;;7.47;0.98;;;17.30;99.90;;;;;;5115932;28;20047;-85
2022/07/16 07:33:50;;;;;;;6.22;1.02;;;18.00;99.90;;;;;;5098348;28;20448;-83
2022/07/16 07:36:16;;;;;;;6.15;0.90;;;18.90;99.90;;;;;;5116012;28;20069;-87
2022/07/16 07:38:41;;;;;;;3.53;1.00;;;19.10;99.90;;;;;;5115555;28;20080;-83
2022/07/16 07:41:07;;;;;;;4.97;0.90;;;18.80;99.90;;;;;;5097380;28;20063;-86
2022/07/16 07:43:32;;;;;;;7.40;0.90;;;18.60;99.90;;;;;;5080569;28;20126;-83
2022/07/16 07:45:58;;;;;;;4.82;0.80;;;18.70;99.90;;;;;;5116107;28;20035;-85
2022/07/16 07:48:24;;;;;;;4.05;0.82;;;19.10;99.90;;;;;;5080055;28;20511;-83
2022/07/16 07:50:49;;;;;;;7.47;0.88;;;19.70;99.90;;;;;;5115412;28;20043;-86
2022/07/16 07:53:15;;;;;;;3.65;0.93;;;20.60;96.80;;;;;;5097716;28;20081;-84
2022/07/16 07:55:41;;;;;;;3.10;0.70;;;21.40;89.80;;;;;;5096994;28;20087;-84
2022/07/16 07:58:08;;;;;;;9.65;1.10;;;21.90;80.10;;;;;;5115186;28;20043;-85
2022/07/16 08:00:34;;;;;;;4.28;0.88;;;21.60;77.00;;;;;;5097304;28;20131;-87
2022/07/16 08:03:00;;;;;;;5.75;1.10;;;21.00;88.40;;;;;;5097616;28;20055;-83
2022/07/16 08:05:25;;;;;;;7.07;1.13;;;20.50;90.40;;;;;;5080358;28;20051;-85
2022/07/16 08:07:51;;;;;;;7.13;0.90;;;20.10;91.30;;;;;;5115461;28;20046;-85
2022/07/16 08:10:17;;;;;;;4.45;0.80;;;19.60;92.30;;;;;;5115020;28;20036;-85
2022/07/16 08:12:43;;;;;;;6.20;0.77;;;19.50;95.20;;;;;;5097077;28;20044;-83
2022/07/16 08:15:09;;;;;;;5.90;0.90;;;20.40;86.20;;;;;;5114829;28;20122;-84
2022/07/16 08:17:35;;;;;;;5.85;1.00;;;20.30;82.50;;;;;;5079775;28;20138;-86
2022/07/16 08:20:01;;;;;;;4.75;0.80;;;20.00;86.60;;;;;;5115332;28;20426;-84
2022/07/16 08:22:26;;;;;;;6.95;1.10;;;19.60;92.10;;;;;;5097244;28;20043;-85
2022/07/16 08:27:36;;;;;;;6.00;1.85;;;18.90;92.70;;;;;;5096533;28;20154;-88
2022/07/16 08:30:03;;;;;;;8.18;1.70;;;19.50;90.70;;;;;;5096962;28;20127;-86
2022/07/16 08:32:28;;;;;;;7.63;1.45;;;21.00;79.10;;;;;;5115081;28;20043;-84
2022/07/16 08:34:54;;;;;;;4.45;0.90;;;22.30;65.60;;;;;;5114727;28;20460;-84
2022/07/16 08:37:38;;;;;;;4.57;0.80;;;22.70;63.60;;;;;;5097060;28;20039;-87
2022/07/16 08:40:06;;;;;;;5.63;0.82;;;22.30;63.50;;;;;;5079003;28;20055;-85
2022/07/16 08:42:33;;;;;;;4.45;0.88;;;21.50;66.30;;;;;;5096120;28;20055;-86
2022/07/16 08:45:00;;;;;;;6.68;0.82;;;20.80;67.70;;;;;;5114634;28;20079;-86
2022/07/16 08:47:28;;;;;;;6.68;1.00;;;20.20;71.30;;;;;;5114871;28;20075;-85
2022/07/16 08:49:54;;;;;;;4.53;0.80;;;19.80;80.50;;;;;;5114397;28;20043;-84
2022/07/16 08:52:23;;;;;;;3.38;0.75;;;19.70;80.70;;;;;;5096265;28;20461;-87
2022/07/16 08:54:49;;;;;;;6.18;0.82;;;20.70;75.40;;;;;;5096213;28;20050;-89
2022/07/16 08:57:16;;;;;;;3.00;0.63;;;21.70;70.70;;;;;;5114380;28;20384;-86
2022/07/16 08:59:42;;;;;;;3.97;0.65;;;21.90;65.80;;;;;;5096738;27;20136;-84
2022/07/16 09:02:13;;;;;;;4.95;0.95;;;21.50;63.30;;;;;;5096869;28;20127;-86
2022/07/16 09:04:41;;;;;;;5.60;1.00;;;20.90;64.00;;;;;;5096485;28;20495;-84
2022/07/16 09:07:07;;;;;;;4.88;0.90;;;20.70;66.60;;;;;;5114142;28;20082;-84
2022/07/16 09:09:32;;;;;;;5.88;1.00;;;20.50;66.00;;;;;;5113757;28;20477;-83
2022/07/16 09:11:58;;;;;;;5.40;0.75;;;20.40;66.60;;;;;;5095975;28;20362;-84
2022/07/16 09:14:24;;;;;;;6.10;0.90;;;21.50;64.40;;;;;;5114315;28;20549;-85
2022/07/16 09:16:53;;;;;;;5.00;0.75;;;21.90;59.90;;;;;;5114032;28;20044;-85
2022/07/16 09:19:24;;;;;;;4.03;0.80;;;21.80;60.10;;;;;;5114065;28;20039;-86
2022/07/16 09:22:14;;;;;;;2.88;0.70;;;21.50;60.70;;;;;;5095777;28;20491;-84
2022/07/16 09:24:44;;;;;;;4.68;0.60;;;21.30;62.20;;;;;;5113662;28;20047;-86
2022/07/16 09:27:19;;;;;;;2.20;0.70;;;22.70;60.70;;;;;;5096139;28;20047;-86
2022/07/16 09:29:54;;;;;;;2.67;0.60;;;24.40;56.40;;;;;;5096096;28;20047;-84
2022/07/16 09:32:28;;;;;;;4.15;0.85;;;25.70;52.00;;;;;;5113852;28;20052;-83
2022/07/16 09:35:13;;;;;;;6.47;1.10;;;25.70;51.60;;;;;;5095654;28;20476;-83
2022/07/16 09:37:51;;;;;;;2.33;0.70;;;25.60;50.80;;;;;;5113998;28;20457;-85
2022/07/16 09:40:40;;;;;;;5.38;0.65;;;25.30;51.50;;;;;;5095556;28;20047;-85
2022/07/16 09:43:14;;;;;;;6.55;0.90;;;25.30;51.90;;;;;;5095522;28;20508;-87
2022/07/16 09:45:43;;;;;;;1.52;0.60;;;25.00;51.50;;;;;;5079243;28;20070;-85
2022/07/16 09:48:18;;;;;;;2.50;0.88;;;24.30;51.80;;;;;;5096096;28;20365;-85
2022/07/16 09:50:44;;;;;;;4.47;1.05;;;23.90;52.40;;;;;;5078506;28;20051;-84
2022/07/16 09:53:14;;;;;;;3.95;0.80;;;23.90;53.30;;;;;;5095889;28;20051;-84
2022/07/16 09:56:02;;;;;;;4.10;0.90;;;25.20;53.10;;;;;;5113558;28;20146;-87
2022/07/16 09:58:29;;;;;;;3.47;0.70;;;26.80;47.10;;;;;;5078280;28;20515;-85
2022/07/16 10:00:55;;;;;;;3.83;0.75;;;27.80;47.70;;;;;;5113551;27;20052;-86
2022/07/16 10:03:21;;;;;;;4.05;0.80;;;27.90;46.50;;;;;;5095888;28;20087;-84
2022/07/16 10:05:47;;;;;;;3.58;1.02;;;27.00;46.80;;;;;;5113650;28;20043;-85
2022/07/16 10:08:14;;;;;;;5.47;0.90;;;25.70;48.40;;;;;;5113466;28;20039;-84
2022/07/16 10:10:40;;;;;;;4.03;1.00;;;25.20;50.30;;;;;;5095985;28;20082;-84
2022/07/16 10:13:07;;;;;;;4.95;0.85;;;25.70;50.90;;;;;;5113747;28;20073;-86
2022/07/16 10:15:33;;;;;;;3.85;0.80;;;26.60;48.10;;;;;;5113829;28;20075;-91
2022/07/16 10:17:59;;;;;;;6.32;1.00;;;27.10;47.20;;;;;;5113481;28;20042;-86
2022/07/16 10:20:24;;;;;;;2.83;0.73;;;28.00;46.50;;;;;;5095493;28;20043;-86
2022/07/16 10:22:51;;;;;;;2.80;0.80;;;28.80;44.30;;;;;;5095189;28;20043;-87
2022/07/16 10:25:22;;;;;;;2.75;0.90;;;29.10;44.10;;;;;;5113052;28;20489;-88
2022/07/16 10:27:49;;;;;;;2.63;0.70;;;29.70;43.40;;;;;;5113436;28;20126;-88
2022/07/16 10:30:31;;;;;;;3.13;0.90;;;29.70;42.40;;;;;;5113349;28;20031;-89
2022/07/16 10:33:02;;;;;;;3.17;1.05;;;28.50;43.70;;;;;;5078517;28;20043;-90
2022/07/16 10:35:31;;;;;;;2.92;0.90;;;28.70;44.20;;;;;;5078430;28;20438;-86
2022/07/16 10:38:04;;;;;;;3.72;1.08;;;29.20;43.60;;;;;;5098508;28;20117;-86
2022/07/16 10:40:31;;;;;;;2.47;0.52;;;30.00;43.60;;;;;;5081934;28;20096;-86
2022/07/16 10:43:14;;;;;;;2.63;1.00;;;30.80;42.00;;;;;;5098899;28;20050;-85
2022/07/16 10:45:54;;;;;;;4.50;0.85;;;30.50;42.10;;;;;;5116873;28;20051;-87
2022/07/16 10:48:30;;;;;;;5.28;1.00;;;30.30;40.90;;;;;;5098493;28;20050;-86
2022/07/16 10:51:14;;;;;;;5.13;1.25;;;29.30;41.70;;;;;;5116978;28;20097;-88
2022/07/16 10:54:01;;;;;;;3.97;1.02;;;27.90;43.80;;;;;;5116813;28;20053;-86
2022/07/16 10:56:38;;;;;;;3.58;1.00;;;27.30;44.30;;;;;;5098774;28;20090;-86
2022/07/16 10:59:10;;;;;;;3.15;0.80;;;27.80;44.40;;;;;;5099421;28;20040;-88
2022/07/16 11:01:37;;;;;;;3.58;1.20;;;27.70;45.30;;;;;;5098713;28;20108;-90
2022/07/16 11:04:07;;;;;;;4.25;0.75;;;27.90;46.00;;;;;;5081506;28;20062;-91
2022/07/16 11:06:33;;;;;;;2.55;0.88;;;28.80;44.20;;;;;;5081268;28;20490;-89
2022/07/16 11:09:01;;;;;;;5.03;1.02;;;29.70;42.60;;;;;;5116676;28;20046;-88
2022/07/16 11:11:37;;;;;;;5.25;0.90;;;30.40;41.80;;;;;;5097986;28;20043;-87
2022/07/16 11:14:05;;;;;;;2.85;0.70;;;29.70;41.00;;;;;;5098099;28;20044;-86
2022/07/16 11:16:32;;;;;;;6.65;0.90;;;28.20;42.70;;;;;;5116002;28;20504;-88
2022/07/16 11:19:04;;;;;;;3.35;0.90;;;27.00;44.80;;;;;;5098116;28;20083;-89
2022/07/16 11:21:31;;;;;;;4.57;0.90;;;25.80;45.80;;;;;;5097786;28;20052;-88
2022/07/16 11:24:05;;;;;;;3.05;0.77;;;25.40;47.90;;;;;;5097887;28;20039;-87
2022/07/16 11:26:30;;;;;;;3.97;0.95;;;26.40;47.40;;;;;;5116027;28;20047;-87
2022/07/16 11:29:02;;;;;;;6.53;0.90;;;26.90;45.50;;;;;;5116020;28;20388;-87
2022/07/16 11:31:30;;;;;;;3.95;0.93;;;27.60;45.30;;;;;;5097947;28;20043;-88
2022/07/16 11:34:08;;;;;;;2.90;0.70;;;28.40;44.10;;;;;;5098090;28;20032;-87
2022/07/16 11:36:38;;;;;;;5.90;1.00;;;28.70;41.60;;;;;;5080789;28;20437;-87
2022/07/16 11:39:06;;;;;;;5.70;0.93;;;28.10;42.50;;;;;;5081054;28;20369;-89
2022/07/16 11:41:34;;;;;;;2.83;0.90;;;27.10;44.40;;;;;;5080628;28;20555;-87
2022/07/16 11:44:08;;;;;;;1.85;0.60;;;26.80;47.60;;;;;;5097545;28;20043;-85
2022/07/16 11:46:52;;;;;;;2.47;0.90;;;28.20;46.00;;;;;;5115339;28;20035;-87
2022/07/16 11:49:38;;;;;;;2.38;0.80;;;29.40;44.10;;;;;;5115223;28;20039;-90
2022/07/16 11:52:16;;;;;;;3.60;1.00;;;28.80;42.70;;;;;;5098192;28;20078;-89
2022/07/16 11:54:42;;;;;;;2.30;0.88;;;28.90;43.40;;;;;;5081054;28;20094;-88
2022/07/16 11:57:10;;;;;;;4.85;0.80;;;29.70;42.50;;;;;;5115329;28;20047;-90
2022/07/16 11:59:41;;;;;;;3.63;0.90;;;30.60;40.90;;;;;;5097232;28;20105;-87
2022/07/16 12:02:10;;;;;;;2.35;0.80;;;30.50;40.70;;;;;;5115487;28;20044;-87
2022/07/16 12:04:35;;;;;;;2.97;0.70;;;30.50;41.50;;;;;;5097293;28;20525;-90
2022/07/16 12:07:06;;;;;;;3.92;0.98;;;31.00;40.20;;;;;;5097417;28;20122;-90
2022/07/16 12:09:34;;;;;;;3.17;0.80;;;31.10;40.50;;;;;;5097711;28;20130;-87
2022/07/16 12:12:04;;;;;;;3.70;0.90;;;30.10;41.90;;;;;;5115288;28;20456;-89
2022/07/16 12:14:50;;;;;;;3.47;0.80;;;28.80;43.00;;;;;;5096963;28;20094;-85
2022/07/16 12:17:24;;;;;;;3.97;1.00;;;27.90;43.30;;;;;;5097165;28;20039;-87
2022/07/16 12:20:08;;;;;;;5.22;0.82;;;27.50;45.90;;;;;;5114913;28;20139;-84
2022/07/16 12:22:48;;;;;;;3.67;0.93;;;27.90;44.80;;;;;;5079985;28;20039;-90
2022/07/16 12:25:27;;;;;;;3.53;1.07;;;28.60;45.10;;;;;;5097294;28;20055;-87
2022/07/16 12:27:58;;;;;;;4.43;0.90;;;28.90;43.20;;;;;;5096736;28;20368;-89
2022/07/16 12:30:43;;;;;;;4.03;0.95;;;29.00;43.60;;;;;;5097055;28;20422;-86
2022/07/16 12:33:24;;;;;;;4.05;0.77;;;29.50;43.10;;;;;;5114437;28;20078;-88
2022/07/16 12:36:09;;;;;;;5.50;1.00;;;30.20;41.30;;;;;;5079989;28;20101;-89
2022/07/16 12:38:40;;;;;;;4.53;1.00;;;29.40;41.80;;;;;;5115087;28;20039;-87
2022/07/16 12:41:12;;;;;;;2.97;0.63;;;27.90;42.90;;;;;;5079647;28;20043;-88
2022/07/16 12:43:39;;;;;;;3.75;0.90;;;27.10;45.30;;;;;;5114330;28;20043;-89
2022/07/16 12:46:06;;;;;;;3.50;0.90;;;27.80;46.00;;;;;;5115137;28;20039;-87
2022/07/16 12:48:50;;;;;;;5.78;1.35;;;28.80;43.30;;;;;;5079974;28;20039;-86
2022/07/16 12:51:22;;;;;;;4.90;1.08;;;29.50;41.40;;;;;;5096236;28;20477;-90
2022/07/16 12:53:49;;;;;;;5.65;1.00;;;29.80;41.80;;;;;;5096515;28;20035;-87
2022/07/16 12:59:00;;;;;;;6.65;1.23;;;28.50;42.50;;;;;;5095994;28;20439;-85
2022/07/16 13:01:27;;;;;;;2.78;0.90;;;26.80;43.70;;;;;;5096569;28;20051;-89
2022/07/16 13:03:53;;;;;;;6.47;1.10;;;25.60;45.30;;;;;;5114479;28;20040;-87
2022/07/16 13:06:21;;;;;;;6.65;1.05;;;24.70;46.80;;;;;;5096243;28;20035;-87
2022/07/16 13:08:46;;;;;;;2.92;1.00;;;24.50;49.70;;;;;;5079723;28;20039;-87